sensor_id;sensor_type;location;lat;lon;timestamp;pressure;altitude;pressure_sealevel;temperature;humidity
39405;BME280;25121;51.090;17.038;2022-11-20T00:00:17;99723.78;;;-2.44;62.60
39405;BME280;25121;51.090;17.038;2022-11-20T00:01:39;99715.88;;;-2.44;62.77
39405;BME280;25121;51.090;17.038;2022-11-20T00:03:02;99725.50;;;-2.43;63.07
39405;BME280;25121;51.090;17.038;2022-11-20T00:04:23;99721.91;;;-2.42;62.99
39405;BME280;25121;51.090;17.038;2022-11-20T00:05:48;99721.06;;;-2.42;62.84
39405;BME280;25121;51.090;17.038;2022-11-20T00:07:23;99720.09;;;-2.41;62.70
39405;BME280;25121;51.090;17.038;2022-11-20T00:08:56;99720.09;;;-2.41;63.18
39405;BME280;25121;51.090;17.038;2022-11-20T00:10:19;99715.72;;;-2.41;62.80
39405;BME280;25121;51.090;17.038;2022-11-20T00:11:48;99714.75;;;-2.40;63.08
39405;BME280;25121;51.090;17.038;2022-11-20T00:13:22;99712.03;;;-2.38;62.59
39405;BME280;25121;51.090;17.038;2022-11-20T00:14:52;99709.41;;;-2.38;63.11
39405;BME280;25121;51.090;17.038;2022-11-20T00:16:18;99711.81;;;-2.35;62.90
39405;BME280;25121;51.090;17.038;2022-11-20T00:17:43;99701.28;;;-2.35;63.03
39405;BME280;25121;51.090;17.038;2022-11-20T00:19:05;99715.28;;;-2.34;63.05
39405;BME280;25121;51.090;17.038;2022-11-20T00:20:33;99717.00;;;-2.33;63.08
39405;BME280;25121;51.090;17.038;2022-11-20T00:21:59;99714.34;;;-2.33;63.16
39405;BME280;25121;51.090;17.038;2022-11-20T00:23:23;99716.88;;;-2.32;62.90
39405;BME280;25121;51.090;17.038;2022-11-20T00:24:46;99721.28;;;-2.32;62.91
39405;BME280;25121;51.090;17.038;2022-11-20T00:26:09;99716.13;;;-2.34;62.77
39405;BME280;25121;51.090;17.038;2022-11-20T00:27:32;99726.78;;;-2.35;62.85
39405;BME280;25121;51.090;17.038;2022-11-20T00:28:56;99725.06;;;-2.36;62.64
39405;BME280;25121;51.090;17.038;2022-11-20T00:30:28;99720.84;;;-2.39;62.91
39405;BME280;25121;51.090;17.038;2022-11-20T00:31:56;99722.00;;;-2.43;62.63
39405;BME280;25121;51.090;17.038;2022-11-20T00:33:19;99724.75;;;-2.45;62.92
39405;BME280;25121;51.090;17.038;2022-11-20T00:34:45;99722.31;;;-2.48;62.93
39405;BME280;25121;51.090;17.038;2022-11-20T00:36:09;99728.63;;;-2.50;63.00
39405;BME280;25121;51.090;17.038;2022-11-20T00:37:33;99727.88;;;-2.52;62.96
39405;BME280;25121;51.090;17.038;2022-11-20T00:38:57;99724.50;;;-2.54;62.91
39405;BME280;25121;51.090;17.038;2022-11-20T00:40:22;99724.59;;;-2.56;62.86
39405;BME280;25121;51.090;17.038;2022-11-20T00:41:45;99727.34;;;-2.57;62.89
39405;BME280;25121;51.090;17.038;2022-11-20T00:43:06;99725.75;;;-2.60;63.05
39405;BME280;25121;51.090;17.038;2022-11-20T00:44:28;99726.69;;;-2.61;63.36
39405;BME280;25121;51.090;17.038;2022-11-20T00:45:50;99725.09;;;-2.64;62.98
39405;BME280;25121;51.090;17.038;2022-11-20T00:47:13;99731.31;;;-2.65;63.02
39405;BME280;25121;51.090;17.038;2022-11-20T00:48:36;99727.09;;;-2.67;63.06
39405;BME280;25121;51.090;17.038;2022-11-20T00:49:57;99732.44;;;-2.69;63.14
39405;BME280;25121;51.090;17.038;2022-11-20T00:51:21;99730.78;;;-2.70;63.00
39405;BME280;25121;51.090;17.038;2022-11-20T00:52:44;99728.22;;;-2.71;63.01
39405;BME280;25121;51.090;17.038;2022-11-20T00:54:06;99729.19;;;-2.72;62.83
39405;BME280;25121;51.090;17.038;2022-11-20T00:55:29;99739.69;;;-2.72;62.94
39405;BME280;25121;51.090;17.038;2022-11-20T00:56:52;99740.63;;;-2.73;63.22
39405;BME280;25121;51.090;17.038;2022-11-20T00:58:14;99740.75;;;-2.75;63.00
39405;BME280;25121;51.090;17.038;2022-11-20T00:59:35;99741.66;;;-2.76;63.35
39405;BME280;25121;51.090;17.038;2022-11-20T01:01:01;99736.53;;;-2.77;63.18
39405;BME280;25121;51.090;17.038;2022-11-20T01:02:27;99740.84;;;-2.76;63.57
39405;BME280;25121;51.090;17.038;2022-11-20T01:03:51;99747.03;;;-2.77;63.57
39405;BME280;25121;51.090;17.038;2022-11-20T01:05:14;99739.16;;;-2.77;63.65
39405;BME280;25121;51.090;17.038;2022-11-20T01:06:41;99740.94;;;-2.78;63.51
39405;BME280;25121;51.090;17.038;2022-11-20T01:08:04;99740.09;;;-2.78;63.77
39405;BME280;25121;51.090;17.038;2022-11-20T01:09:25;99737.38;;;-2.77;63.66
39405;BME280;25121;51.090;17.038;2022-11-20T01:10:52;99736.63;;;-2.79;63.67
39405;BME280;25121;51.090;17.038;2022-11-20T01:12:15;99737.38;;;-2.77;63.53
39405;BME280;25121;51.090;17.038;2022-11-20T01:13:38;99740.84;;;-2.76;63.46
39405;BME280;25121;51.090;17.038;2022-11-20T01:14:59;99743.47;;;-2.76;63.67
39405;BME280;25121;51.090;17.038;2022-11-20T01:16:23;99743.47;;;-2.76;63.46
39405;BME280;25121;51.090;17.038;2022-11-20T01:17:46;99739.91;;;-2.75;63.58
39405;BME280;25121;51.090;17.038;2022-11-20T01:19:11;99743.38;;;-2.75;63.88
39405;BME280;25121;51.090;17.038;2022-11-20T01:20:37;99741.59;;;-2.74;63.66
39405;BME280;25121;51.090;17.038;2022-11-20T01:21:59;99739.91;;;-2.75;63.51
39405;BME280;25121;51.090;17.038;2022-11-20T01:23:21;99734.66;;;-2.75;63.64
39405;BME280;25121;51.090;17.038;2022-11-20T01:24:42;99742.41;;;-2.74;63.70
39405;BME280;25121;51.090;17.038;2022-11-20T01:26:07;99739.78;;;-2.74;63.27
39405;BME280;25121;51.090;17.038;2022-11-20T01:27:28;99733.69;;;-2.74;63.66
39405;BME280;25121;51.090;17.038;2022-11-20T01:28:51;99739.91;;;-2.75;63.68
39405;BME280;25121;51.090;17.038;2022-11-20T01:30:14;99740.75;;;-2.75;63.42
39405;BME280;25121;51.090;17.038;2022-11-20T01:31:37;99744.22;;;-2.74;63.30
39405;BME280;25121;51.090;17.038;2022-11-20T01:33:00;99734.53;;;-2.74;63.54
39405;BME280;25121;51.090;17.038;2022-11-20T01:34:23;99730.97;;;-2.73;63.70
39405;BME280;25121;51.090;17.038;2022-11-20T01:35:45;99738.00;;;-2.73;63.70
39405;BME280;25121;51.090;17.038;2022-11-20T01:37:07;99733.59;;;-2.73;63.62
39405;BME280;25121;51.090;17.038;2022-11-20T01:38:28;99729.28;;;-2.74;63.44
39405;BME280;25121;51.090;17.038;2022-11-20T01:39:52;99737.06;;;-2.72;63.52
39405;BME280;25121;51.090;17.038;2022-11-20T01:41:17;99734.44;;;-2.72;63.13
39405;BME280;25121;51.090;17.038;2022-11-20T01:43:01;99735.28;;;-2.72;63.12
39405;BME280;25121;51.090;17.038;2022-11-20T01:44:56;99738.00;;;-2.73;63.29
39405;BME280;25121;51.090;17.038;2022-11-20T01:46:19;99739.78;;;-2.74;63.38
39405;BME280;25121;51.090;17.038;2022-11-20T01:47:43;99738.19;;;-2.76;63.41
39405;BME280;25121;51.090;17.038;2022-11-20T01:49:14;99737.38;;;-2.77;63.37
39405;BME280;25121;51.090;17.038;2022-11-20T01:50:38;99728.72;;;-2.79;63.26
39405;BME280;25121;51.090;17.038;2022-11-20T01:52:03;99729.69;;;-2.80;63.37
39405;BME280;25121;51.090;17.038;2022-11-20T01:53:29;99727.13;;;-2.82;63.29
39405;BME280;25121;51.090;17.038;2022-11-20T01:54:54;99737.78;;;-2.83;63.30
39405;BME280;25121;51.090;17.038;2022-11-20T01:56:23;99731.75;;;-2.85;63.28
39405;BME280;25121;51.090;17.038;2022-11-20T01:57:51;99736.34;;;-2.89;63.24
39405;BME280;25121;51.090;17.038;2022-11-20T01:59:18;99730.34;;;-2.91;63.30
39405;BME280;25121;51.090;17.038;2022-11-20T02:00:47;99726.13;;;-2.93;63.15
39405;BME280;25121;51.090;17.038;2022-11-20T02:02:21;99730.75;;;-2.97;63.33
39405;BME280;25121;51.090;17.038;2022-11-20T02:03:49;99730.00;;;-2.99;63.36
39405;BME280;25121;51.090;17.038;2022-11-20T02:05:27;99721.50;;;-3.03;63.61
39405;BME280;25121;51.090;17.038;2022-11-20T02:06:57;99721.56;;;-3.04;63.70
39405;BME280;25121;51.090;17.038;2022-11-20T02:08:24;99719.97;;;-3.07;63.41
39405;BME280;25121;51.090;17.038;2022-11-20T02:09:53;99715.75;;;-3.09;63.52
39405;BME280;25121;51.090;17.038;2022-11-20T02:11:20;99718.47;;;-3.11;63.45
39405;BME280;25121;51.090;17.038;2022-11-20T02:12:52;99716.88;;;-3.13;63.75
39405;BME280;25121;51.090;17.038;2022-11-20T02:14:32;99717.94;;;-3.16;63.75
39405;BME280;25121;51.090;17.038;2022-11-20T02:15:56;99720.69;;;-3.17;63.36
39405;BME280;25121;51.090;17.038;2022-11-20T02:17:20;99724.34;;;-3.20;63.69
39405;BME280;25121;51.090;17.038;2022-11-20T02:18:43;99719.16;;;-3.21;63.78
39405;BME280;25121;51.090;17.038;2022-11-20T02:20:08;99723.66;;;-3.23;63.84
39405;BME280;25121;51.090;17.038;2022-11-20T02:21:36;99722.91;;;-3.26;64.15
39405;BME280;25121;51.090;17.038;2022-11-20T02:23:03;99733.56;;;-3.27;64.13
39405;BME280;25121;51.090;17.038;2022-11-20T02:24:28;99727.53;;;-3.29;63.90
39405;BME280;25121;51.090;17.038;2022-11-20T02:25:51;99727.63;;;-3.31;63.79
39405;BME280;25121;51.090;17.038;2022-11-20T02:27:15;99731.19;;;-3.32;64.04
39405;BME280;25121;51.090;17.038;2022-11-20T02:28:37;99719.84;;;-3.32;64.12
39405;BME280;25121;51.090;17.038;2022-11-20T02:30:01;99720.78;;;-3.33;64.46
39405;BME280;25121;51.090;17.038;2022-11-20T02:31:24;99720.78;;;-3.33;64.00
39405;BME280;25121;51.090;17.038;2022-11-20T02:32:45;99718.16;;;-3.33;64.17
39405;BME280;25121;51.090;17.038;2022-11-20T02:34:07;99711.22;;;-3.34;64.37
39405;BME280;25121;51.090;17.038;2022-11-20T02:35:41;99718.16;;;-3.33;64.29
39405;BME280;25121;51.090;17.038;2022-11-20T02:37:03;99719.03;;;-3.33;64.09
39405;BME280;25121;51.090;17.038;2022-11-20T02:38:26;99718.16;;;-3.33;64.14
39405;BME280;25121;51.090;17.038;2022-11-20T02:39:50;99720.78;;;-3.33;64.22
39405;BME280;25121;51.090;17.038;2022-11-20T02:41:13;99723.31;;;-3.32;64.14
39405;BME280;25121;51.090;17.038;2022-11-20T02:42:37;99726.78;;;-3.31;63.94
39405;BME280;25121;51.090;17.038;2022-11-20T02:43:59;99724.16;;;-3.31;64.26
39405;BME280;25121;51.090;17.038;2022-11-20T02:45:21;99731.19;;;-3.32;64.27
39405;BME280;25121;51.090;17.038;2022-11-20T02:46:44;99734.66;;;-3.31;64.31
39405;BME280;25121;51.090;17.038;2022-11-20T02:48:06;99735.63;;;-3.32;64.47
39405;BME280;25121;51.090;17.038;2022-11-20T02:49:28;99730.38;;;-3.32;64.14
39405;BME280;25121;51.090;17.038;2022-11-20T02:50:50;99726.03;;;-3.33;64.33
39405;BME280;25121;51.090;17.038;2022-11-20T02:52:11;99727.00;;;-3.34;64.05
39405;BME280;25121;51.090;17.038;2022-11-20T02:53:33;99728.84;;;-3.36;64.25
39405;BME280;25121;51.090;17.038;2022-11-20T02:54:56;99728.97;;;-3.38;64.51
39405;BME280;25121;51.090;17.038;2022-11-20T02:56:18;99718.53;;;-3.39;64.43
39405;BME280;25121;51.090;17.038;2022-11-20T02:57:41;99727.34;;;-3.40;64.15
39405;BME280;25121;51.090;17.038;2022-11-20T02:59:02;99721.25;;;-3.41;64.60
39405;BME280;25121;51.090;17.038;2022-11-20T03:00:26;99725.69;;;-3.41;64.41
39405;BME280;25121;51.090;17.038;2022-11-20T03:01:47;99729.97;;;-3.40;64.53
39405;BME280;25121;51.090;17.038;2022-11-20T03:03:08;99712.63;;;-3.43;64.79
39405;BME280;25121;51.090;17.038;2022-11-20T03:04:29;99717.03;;;-3.43;64.29
39405;BME280;25121;51.090;17.038;2022-11-20T03:05:51;99720.50;;;-3.43;64.26
39405;BME280;25121;51.090;17.038;2022-11-20T03:07:14;99721.47;;;-3.44;64.13
39405;BME280;25121;51.090;17.038;2022-11-20T03:08:36;99721.47;;;-3.44;64.16
39405;BME280;25121;51.090;17.038;2022-11-20T03:09:59;99716.19;;;-3.44;64.59
39405;BME280;25121;51.090;17.038;2022-11-20T03:11:21;99725.03;;;-3.45;64.15
39405;BME280;25121;51.090;17.038;2022-11-20T03:12:43;99716.28;;;-3.46;64.26
39405;BME280;25121;51.090;17.038;2022-11-20T03:14:06;99725.03;;;-3.45;64.34
39405;BME280;25121;51.090;17.038;2022-11-20T03:15:28;99726.78;;;-3.46;64.90
39405;BME280;25121;51.090;17.038;2022-11-20T03:16:49;99728.50;;;-3.44;64.66
39405;BME280;25121;51.090;17.038;2022-11-20T03:18:11;99718.91;;;-3.46;64.65
39405;BME280;25121;51.090;17.038;2022-11-20T03:19:34;99718.91;;;-3.46;64.77
39405;BME280;25121;51.090;17.038;2022-11-20T03:20:57;99720.63;;;-3.44;64.73
39405;BME280;25121;51.090;17.038;2022-11-20T03:22:23;99712.75;;;-3.44;64.94
39405;BME280;25121;51.090;17.038;2022-11-20T03:23:44;99716.13;;;-3.42;64.51
39405;BME280;25121;51.090;17.038;2022-11-20T03:25:08;99720.41;;;-3.41;65.13
39405;BME280;25121;51.090;17.038;2022-11-20T03:26:29;99710.75;;;-3.41;64.78
39405;BME280;25121;51.090;17.038;2022-11-20T03:27:51;99711.59;;;-3.40;64.92
39405;BME280;25121;51.090;17.038;2022-11-20T03:29:13;99718.53;;;-3.39;64.51
39405;BME280;25121;51.090;17.038;2022-11-20T03:30:36;99714.97;;;-3.38;64.79
39405;BME280;25121;51.090;17.038;2022-11-20T03:32:00;99712.34;;;-3.38;64.77
39405;BME280;25121;51.090;17.038;2022-11-20T03:33:22;99716.75;;;-3.39;64.34
39405;BME280;25121;51.090;17.038;2022-11-20T03:34:43;99715.84;;;-3.38;64.41
39405;BME280;25121;51.090;17.038;2022-11-20T03:36:07;99712.25;;;-3.37;64.38
39405;BME280;25121;51.090;17.038;2022-11-20T03:37:29;99718.34;;;-3.36;64.47
39405;BME280;25121;51.090;17.038;2022-11-20T03:38:53;99712.16;;;-3.35;64.60
39405;BME280;25121;51.090;17.038;2022-11-20T03:40:16;99708.59;;;-3.34;64.44
39405;BME280;25121;51.090;17.038;2022-11-20T03:41:40;99710.25;;;-3.33;64.53
39405;BME280;25121;51.090;17.038;2022-11-20T03:43:04;99706.72;;;-3.32;64.58
39405;BME280;25121;51.090;17.038;2022-11-20T03:44:27;99713.66;;;-3.31;64.44
39405;BME280;25121;51.090;17.038;2022-11-20T03:45:50;99710.94;;;-3.30;64.37
39405;BME280;25121;51.090;17.038;2022-11-20T03:47:11;99720.50;;;-3.29;64.40
39405;BME280;25121;51.090;17.038;2022-11-20T03:48:33;99716.94;;;-3.28;64.28
39405;BME280;25121;51.090;17.038;2022-11-20T03:49:55;99709.78;;;-3.26;64.53
39405;BME280;25121;51.090;17.038;2022-11-20T03:51:18;99713.38;;;-3.27;64.55
39405;BME280;25121;51.090;17.038;2022-11-20T03:52:41;99714.13;;;-3.25;64.54
39405;BME280;25121;51.090;17.038;2022-11-20T03:54:04;99713.06;;;-3.22;64.40
39405;BME280;25121;51.090;17.038;2022-11-20T03:55:27;99720.00;;;-3.21;64.40
39405;BME280;25121;51.090;17.038;2022-11-20T03:56:48;99720.00;;;-3.21;64.59
39405;BME280;25121;51.090;17.038;2022-11-20T03:58:11;99724.22;;;-3.18;64.56
39405;BME280;25121;51.090;17.038;2022-11-20T03:59:42;99718.88;;;-3.17;64.41
39405;BME280;25121;51.090;17.038;2022-11-20T04:01:08;99714.47;;;-3.16;64.48
39405;BME280;25121;51.090;17.038;2022-11-20T04:02:31;99716.16;;;-3.15;64.46
39405;BME280;25121;51.090;17.038;2022-11-20T04:03:56;99717.75;;;-3.13;64.39
39405;BME280;25121;51.090;17.038;2022-11-20T04:05:18;99718.69;;;-3.14;64.27
39405;BME280;25121;51.090;17.038;2022-11-20T04:06:58;99718.69;;;-3.14;64.28
39405;BME280;25121;51.090;17.038;2022-11-20T04:08:28;99721.31;;;-3.14;64.12
39405;BME280;25121;51.090;17.038;2022-11-20T04:09:51;99727.31;;;-3.12;64.08
39405;BME280;25121;51.090;17.038;2022-11-20T04:11:19;99729.09;;;-3.12;64.10
39405;BME280;25121;51.090;17.038;2022-11-20T04:12:42;99733.41;;;-3.11;64.50
39405;BME280;25121;51.090;17.038;2022-11-20T04:14:11;99725.53;;;-3.11;63.93
39405;BME280;25121;51.090;17.038;2022-11-20T04:15:34;99729.00;;;-3.11;63.91
39405;BME280;25121;51.090;17.038;2022-11-20T04:17:01;99722.91;;;-3.11;64.11
39405;BME280;25121;51.090;17.038;2022-11-20T04:18:26;99730.78;;;-3.11;64.52
39405;BME280;25121;51.090;17.038;2022-11-20T04:19:52;99734.25;;;-3.11;64.19
39405;BME280;25121;51.090;17.038;2022-11-20T04:21:37;99730.91;;;-3.13;64.43
39405;BME280;25121;51.090;17.038;2022-11-20T04:23:07;99731.81;;;-3.14;64.20
39405;BME280;25121;51.090;17.038;2022-11-20T04:24:34;99730.16;;;-3.15;64.20
39405;BME280;25121;51.090;17.038;2022-11-20T04:26:01;99730.16;;;-3.15;64.13
39405;BME280;25121;51.090;17.038;2022-11-20T04:27:25;99731.94;;;-3.15;64.27
39405;BME280;25121;51.090;17.038;2022-11-20T04:28:49;99727.59;;;-3.16;64.54
39405;BME280;25121;51.090;17.038;2022-11-20T04:30:24;99725.81;;;-3.16;64.47
39405;BME280;25121;51.090;17.038;2022-11-20T04:31:56;99719.72;;;-3.16;64.14
39405;BME280;25121;51.090;17.038;2022-11-20T04:33:32;99727.53;;;-3.15;64.42
39405;BME280;25121;51.090;17.038;2022-11-20T04:35:04;99710.91;;;-3.15;64.19
39405;BME280;25121;51.090;17.038;2022-11-20T04:36:29;99723.09;;;-3.14;64.36
39405;BME280;25121;51.090;17.038;2022-11-20T04:37:53;99716.16;;;-3.15;64.59
39405;BME280;25121;51.090;17.038;2022-11-20T04:39:28;99716.16;;;-3.15;64.19
39405;BME280;25121;51.090;17.038;2022-11-20T04:40:59;99714.38;;;-3.15;64.15
39405;BME280;25121;51.090;17.038;2022-11-20T04:42:34;99715.22;;;-3.14;64.16
39405;BME280;25121;51.090;17.038;2022-11-20T04:44:16;99711.75;;;-3.15;64.35
39405;BME280;25121;51.090;17.038;2022-11-20T04:46:22;99708.38;;;-3.17;64.37
39405;BME280;25121;51.090;17.038;2022-11-20T04:51:45;99708.56;;;-3.20;64.13
39405;BME280;25121;51.090;17.038;2022-11-20T04:56:20;99707.06;;;-3.24;63.95
39405;BME280;25121;51.090;17.038;2022-11-20T04:58:26;99708.19;;;-3.28;64.17
39405;BME280;25121;51.090;17.038;2022-11-20T05:01:19;99707.47;;;-3.30;64.32
39405;BME280;25121;51.090;17.038;2022-11-20T05:04:10;99696.22;;;-3.32;64.32
39405;BME280;25121;51.090;17.038;2022-11-20T05:06:00;99700.72;;;-3.34;64.15
39405;BME280;25121;51.090;17.038;2022-11-20T05:07:38;99702.50;;;-3.35;64.34
39405;BME280;25121;51.090;17.038;2022-11-20T05:09:03;99698.16;;;-3.36;63.93
39405;BME280;25121;51.090;17.038;2022-11-20T05:10:39;99695.66;;;-3.37;64.38
39405;BME280;25121;51.090;17.038;2022-11-20T05:12:17;99693.94;;;-3.38;64.41
39405;BME280;25121;51.090;17.038;2022-11-20T05:13:47;99688.69;;;-3.38;64.45
39405;BME280;25121;51.090;17.038;2022-11-20T05:15:43;99689.66;;;-3.39;64.29
39405;BME280;25121;51.090;17.038;2022-11-20T05:17:34;99687.84;;;-3.39;64.50
39405;BME280;25121;51.090;17.038;2022-11-20T05:19:27;99681.75;;;-3.39;64.43
39405;BME280;25121;51.090;17.038;2022-11-20T05:20:56;99682.81;;;-3.42;64.64
39405;BME280;25121;51.090;17.038;2022-11-20T05:28:03;99682.34;;;-3.49;64.63
39405;BME280;25121;51.090;17.038;2022-11-20T05:29:27;99682.34;;;-3.49;64.20
39405;BME280;25121;51.090;17.038;2022-11-20T05:31:03;99687.59;;;-3.49;64.34
39405;BME280;25121;51.090;17.038;2022-11-20T05:32:27;99688.53;;;-3.50;64.47
39405;BME280;25121;51.090;17.038;2022-11-20T05:33:55;99690.31;;;-3.50;64.58
39405;BME280;25121;51.090;17.038;2022-11-20T05:35:30;99691.38;;;-3.53;64.98
39405;BME280;25121;51.090;17.038;2022-11-20T05:36:56;99688.06;;;-3.56;64.59
39405;BME280;25121;51.090;17.038;2022-11-20T05:38:30;99686.47;;;-3.59;64.52
39405;BME280;25121;51.090;17.038;2022-11-20T05:39:52;99687.44;;;-3.60;64.98
39405;BME280;25121;51.090;17.038;2022-11-20T05:41:18;99693.59;;;-3.61;65.01
39405;BME280;25121;51.090;17.038;2022-11-20T05:42:55;99678.13;;;-3.65;65.05
39405;BME280;25121;51.090;17.038;2022-11-20T05:44:36;99680.09;;;-3.69;64.58
39405;BME280;25121;51.090;17.038;2022-11-20T05:46:09;99682.94;;;-3.72;64.65
39405;BME280;25121;51.090;17.038;2022-11-20T05:47:33;99676.94;;;-3.74;65.20
39405;BME280;25121;51.090;17.038;2022-11-20T05:48:57;99675.34;;;-3.77;65.39
39405;BME280;25121;51.090;17.038;2022-11-20T05:50:19;99668.38;;;-3.78;65.41
39405;BME280;25121;51.090;17.038;2022-11-20T05:51:41;99666.78;;;-3.80;65.01
39405;BME280;25121;51.090;17.038;2022-11-20T05:53:03;99674.78;;;-3.82;65.63
39405;BME280;25121;51.090;17.038;2022-11-20T05:54:24;99677.47;;;-3.83;65.21
39405;BME280;25121;51.090;17.038;2022-11-20T05:55:46;99665.31;;;-3.84;65.58
39405;BME280;25121;51.090;17.038;2022-11-20T05:57:08;99667.09;;;-3.85;65.35
39405;BME280;25121;51.090;17.038;2022-11-20T05:58:31;99666.22;;;-3.85;65.54
39405;BME280;25121;51.090;17.038;2022-11-20T05:59:54;99664.56;;;-3.86;65.21
39405;BME280;25121;51.090;17.038;2022-11-20T06:01:18;99666.22;;;-3.85;65.38
39405;BME280;25121;51.090;17.038;2022-11-20T06:02:40;99668.97;;;-3.87;65.41
39405;BME280;25121;51.090;17.038;2022-11-20T06:04:01;99668.13;;;-3.87;65.64
39405;BME280;25121;51.090;17.038;2022-11-20T06:05:23;99667.25;;;-3.88;65.46
39405;BME280;25121;51.090;17.038;2022-11-20T06:06:45;99663.78;;;-3.88;65.79
39405;BME280;25121;51.090;17.038;2022-11-20T06:08:06;99671.75;;;-3.90;65.25
39405;BME280;25121;51.090;17.038;2022-11-20T06:09:29;99677.88;;;-3.90;65.62
39405;BME280;25121;51.090;17.038;2022-11-20T06:10:51;99670.00;;;-3.90;65.42
39405;BME280;25121;51.090;17.038;2022-11-20T06:12:12;99672.63;;;-3.90;65.20
39405;BME280;25121;51.090;17.038;2022-11-20T06:13:36;99665.59;;;-3.89;65.77
39405;BME280;25121;51.090;17.038;2022-11-20T06:15:03;99671.66;;;-3.88;65.72
39405;BME280;25121;51.090;17.038;2022-11-20T06:16:26;99669.03;;;-3.88;65.55
39405;BME280;25121;51.090;17.038;2022-11-20T06:17:52;99675.13;;;-3.88;65.55
39405;BME280;25121;51.090;17.038;2022-11-20T06:19:15;99669.03;;;-3.88;65.82
39405;BME280;25121;51.090;17.038;2022-11-20T06:20:39;99666.34;;;-3.87;65.97
39405;BME280;25121;51.090;17.038;2022-11-20T06:22:01;99660.13;;;-3.86;65.56
39405;BME280;25121;51.090;17.038;2022-11-20T06:23:23;99658.47;;;-3.87;65.77
39405;BME280;25121;51.090;17.038;2022-11-20T06:24:47;99661.09;;;-3.87;65.50
39405;BME280;25121;51.090;17.038;2022-11-20T06:26:11;99663.59;;;-3.85;65.32
39405;BME280;25121;51.090;17.038;2022-11-20T06:27:32;99658.34;;;-3.85;65.61
39405;BME280;25121;51.090;17.038;2022-11-20T06:29:10;99658.25;;;-3.84;65.85
39405;BME280;25121;51.090;17.038;2022-11-20T06:30:44;99653.09;;;-3.85;65.76
39405;BME280;25121;51.090;17.038;2022-11-20T06:32:07;99651.41;;;-3.86;65.38
39405;BME280;25121;51.090;17.038;2022-11-20T06:33:43;99653.09;;;-3.85;65.62
39405;BME280;25121;51.090;17.038;2022-11-20T06:35:12;99650.38;;;-3.84;65.47
39405;BME280;25121;51.090;17.038;2022-11-20T06:36:33;99657.31;;;-3.83;65.71
39405;BME280;25121;51.090;17.038;2022-11-20T06:38:02;99653.78;;;-3.82;65.60
39405;BME280;25121;51.090;17.038;2022-11-20T06:39:27;99658.91;;;-3.80;65.64
39405;BME280;25121;51.090;17.038;2022-11-20T06:40:49;99648.31;;;-3.79;65.61
39405;BME280;25121;51.090;17.038;2022-11-20T06:42:13;99647.38;;;-3.78;65.90
39405;BME280;25121;51.090;17.038;2022-11-20T06:43:38;99649.91;;;-3.76;65.58
39405;BME280;25121;51.090;17.038;2022-11-20T06:44:59;99639.22;;;-3.73;65.87
39405;BME280;25121;51.090;17.038;2022-11-20T06:46:23;99646.91;;;-3.70;65.69
39405;BME280;25121;51.090;17.038;2022-11-20T06:47:46;99650.28;;;-3.68;65.96
39405;BME280;25121;51.090;17.038;2022-11-20T06:49:08;99651.84;;;-3.65;65.75
39405;BME280;25121;51.090;17.038;2022-11-20T06:50:31;99650.00;;;-3.63;65.74
39405;BME280;25121;51.090;17.038;2022-11-20T06:51:56;99656.81;;;-3.61;66.13
39405;BME280;25121;51.090;17.038;2022-11-20T06:53:20;99652.25;;;-3.57;65.54
39405;BME280;25121;51.090;17.038;2022-11-20T06:54:41;99653.84;;;-3.55;65.58
39405;BME280;25121;51.090;17.038;2022-11-20T06:56:05;99658.88;;;-3.52;65.91
39405;BME280;25121;51.090;17.038;2022-11-20T06:57:28;99661.31;;;-3.49;65.56
39405;BME280;25121;51.090;17.038;2022-11-20T06:58:50;99657.66;;;-3.46;65.55
39405;BME280;25121;51.090;17.038;2022-11-20T07:00:13;99662.69;;;-3.43;65.77
39405;BME280;25121;51.090;17.038;2022-11-20T07:01:39;99660.81;;;-3.41;65.25
39405;BME280;25121;51.090;17.038;2022-11-20T07:03:04;99656.31;;;-3.39;65.43
39405;BME280;25121;51.090;17.038;2022-11-20T07:04:28;99663.16;;;-3.36;65.52
39405;BME280;25121;51.090;17.038;2022-11-20T07:06:04;99667.31;;;-3.32;65.62
39405;BME280;25121;51.090;17.038;2022-11-20T07:07:31;99667.09;;;-3.29;65.37
39405;BME280;25121;51.090;17.038;2022-11-20T07:08:59;99675.63;;;-3.26;65.48
39405;BME280;25121;51.090;17.038;2022-11-20T07:10:32;99671.94;;;-3.23;64.94
39405;BME280;25121;51.090;17.038;2022-11-20T07:12:05;99668.19;;;-3.19;65.44
39405;BME280;25121;51.090;17.038;2022-11-20T07:13:29;99676.00;;;-3.17;65.03
39405;BME280;25121;51.090;17.038;2022-11-20T07:15:07;99667.06;;;-3.15;65.20
39405;BME280;25121;51.090;17.038;2022-11-20T07:16:30;99666.09;;;-3.14;64.94
39405;BME280;25121;51.090;17.038;2022-11-20T07:18:03;99667.81;;;-3.13;65.14
39405;BME280;25121;51.090;17.038;2022-11-20T07:19:32;99666.09;;;-3.14;65.08
39405;BME280;25121;51.090;17.038;2022-11-20T07:21:10;99669.56;;;-3.13;64.95
39405;BME280;25121;51.090;17.038;2022-11-20T07:22:37;99664.22;;;-3.12;64.92
39405;BME280;25121;51.090;17.038;2022-11-20T07:24:00;99665.19;;;-3.13;64.89
39405;BME280;25121;51.090;17.038;2022-11-20T07:25:22;99661.69;;;-3.13;64.93
39405;BME280;25121;51.090;17.038;2022-11-20T07:26:46;99659.06;;;-3.13;64.84
39405;BME280;25121;51.090;17.038;2022-11-20T07:28:09;99658.22;;;-3.14;64.91
39405;BME280;25121;51.090;17.038;2022-11-20T07:29:36;99659.94;;;-3.13;64.61
39405;BME280;25121;51.090;17.038;2022-11-20T07:31:24;99655.50;;;-3.12;64.88
39405;BME280;25121;51.090;17.038;2022-11-20T07:32:52;99655.31;;;-3.09;65.29
39405;BME280;25121;51.090;17.038;2022-11-20T07:34:31;99651.00;;;-3.10;64.96
39405;BME280;25121;51.090;17.038;2022-11-20T07:36:12;99660.56;;;-3.09;64.68
39405;BME280;25121;51.090;17.038;2022-11-20T07:37:38;99659.59;;;-3.08;64.70
39405;BME280;25121;51.090;17.038;2022-11-20T07:39:26;99654.34;;;-3.08;65.15
39405;BME280;25121;51.090;17.038;2022-11-20T07:45:13;99641.56;;;-3.00;65.13
39405;BME280;25121;51.090;17.038;2022-11-20T07:47:04;99643.03;;;-2.96;64.56
39405;BME280;25121;51.090;17.038;2022-11-20T07:48:33;99642.13;;;-2.95;65.01
39405;BME280;25121;51.090;17.038;2022-11-20T07:50:48;99637.41;;;-2.90;64.45
39405;BME280;25121;51.090;17.038;2022-11-20T07:52:29;99635.38;;;-2.86;64.44